Kithnos, Greece
Current Conditions -  °F | °C
As of 5:50 AM on Saturday 25 Oct 2014 (Local Time) from LGSO Reporting Station
NA  
Wind Chill: 18°   Ceiling: NA
Heat Index: 18°   Visibility: NA
Dew Point: 11°   Wind: 15mph
Humidity: 64%   Direction: 210°SSW
Pressure: 29.74"   Gusts: NA
Location:  37.42°N, 24.43°E
Report Text: LGSO 250250Z AUTO 21013KT 180V240 //// // ////// 18/11 Q1007 RE//
Loading
Personal Weather Stations






























Interactive Weather Map
Tropical Storm Tracking
New forecast layout! Learn more

10-Day Weather Forecast

Advertisements
Track Severe Weather on mobile